sensor_id;sensor_type;location;lat;lon;timestamp;temperature;humidity
66160;DHT22;52960;50.810;20.620;2022-08-01T00:07:04;23;85
66160;DHT22;52960;50.810;20.620;2022-08-01T00:14:18;23;85
66160;DHT22;52960;50.810;20.620;2022-08-01T00:21:02;23;85
66160;DHT22;52960;50.810;20.620;2022-08-01T00:28:23;23;85
66160;DHT22;52960;50.810;20.620;2022-08-01T00:35:18;24;81
66160;DHT22;52960;50.810;20.620;2022-08-01T00:42:15;24;81
66160;DHT22;52960;50.810;20.620;2022-08-01T00:49:18;24;81
66160;DHT22;52960;50.810;20.620;2022-08-01T00:56:11;24;81
66160;DHT22;52960;50.810;20.620;2022-08-01T01:00:23;24;81
66160;DHT22;52960;50.810;20.620;2022-08-01T01:08:04;23;83
66160;DHT22;52960;50.810;20.620;2022-08-01T01:21:35;23;83
66160;DHT22;52960;50.810;20.620;2022-08-01T01:35:40;24;87
66160;DHT22;52960;50.810;20.620;2022-08-01T01:42:20;24;87
66160;DHT22;52960;50.810;20.620;2022-08-01T01:49:25;24;87
66160;DHT22;52960;50.810;20.620;2022-08-01T01:56:35;24;87
66160;DHT22;52960;50.810;20.620;2022-08-01T02:00:15;24;87
66160;DHT22;52960;50.810;20.620;2022-08-01T02:07:34;23;86
66160;DHT22;52960;50.810;20.620;2022-08-01T02:14:13;23;86
66160;DHT22;52960;50.810;20.620;2022-08-01T02:21:18;23;86
66160;DHT22;52960;50.810;20.620;2022-08-01T02:28:53;23;86
66160;DHT22;52960;50.810;20.620;2022-08-01T02:35:41;23;89
66160;DHT22;52960;50.810;20.620;2022-08-01T02:42:15;23;89
66160;DHT22;52960;50.810;20.620;2022-08-01T02:49:31;23;89
66160;DHT22;52960;50.810;20.620;2022-08-01T02:56:38;23;89
66160;DHT22;52960;50.810;20.620;2022-08-01T03:00:26;23;89
66160;DHT22;52960;50.810;20.620;2022-08-01T03:07:18;22;88
66160;DHT22;52960;50.810;20.620;2022-08-01T03:14:38;22;88
66160;DHT22;52960;50.810;20.620;2022-08-01T03:21:09;22;88
66160;DHT22;52960;50.810;20.620;2022-08-01T03:28:04;22;88
66160;DHT22;52960;50.810;20.620;2022-08-01T03:35:07;23;87
66160;DHT22;52960;50.810;20.620;2022-08-01T03:42:36;23;87
66160;DHT22;52960;50.810;20.620;2022-08-01T03:49:06;23;87
66160;DHT22;52960;50.810;20.620;2022-08-01T03:56:28;23;87
66160;DHT22;52960;50.810;20.620;2022-08-01T04:00:21;23;87
66160;DHT22;52960;50.810;20.620;2022-08-01T04:07:02;24;86
66160;DHT22;52960;50.810;20.620;2022-08-01T04:14:04;24;86
66160;DHT22;52960;50.810;20.620;2022-08-01T04:21:17;24;86
66160;DHT22;52960;50.810;20.620;2022-08-01T04:28:20;24;86
66160;DHT22;52960;50.810;20.620;2022-08-01T04:42:04;24;86
66160;DHT22;52960;50.810;20.620;2022-08-01T04:49:19;24;86
66160;DHT22;52960;50.810;20.620;2022-08-01T04:56:03;24;86
66160;DHT22;52960;50.810;20.620;2022-08-01T05:00:14;24;86
66160;DHT22;52960;50.810;20.620;2022-08-01T05:07:16;23;87
66160;DHT22;52960;50.810;20.620;2022-08-01T05:14:17;23;87
66160;DHT22;52960;50.810;20.620;2022-08-01T05:21:04;23;87
66160;DHT22;52960;50.810;20.620;2022-08-01T05:28:03;23;87
66160;DHT22;52960;50.810;20.620;2022-08-01T05:35:02;22.78;90
66160;DHT22;52960;50.810;20.620;2022-08-01T05:42:03;22.78;90
66160;DHT22;52960;50.810;20.620;2022-08-01T05:49:19;22.78;90
66160;DHT22;52960;50.810;20.620;2022-08-01T05:56:04;22.78;90
66160;DHT22;52960;50.810;20.620;2022-08-01T06:00:17;22.78;90
66160;DHT22;52960;50.810;20.620;2022-08-01T06:07:06;23.15;89
66160;DHT22;52960;50.810;20.620;2022-08-01T06:14:03;23.15;89
66160;DHT22;52960;50.810;20.620;2022-08-01T06:21:17;23.15;89
66160;DHT22;52960;50.810;20.620;2022-08-01T06:28:16;23.15;89
66160;DHT22;52960;50.810;20.620;2022-08-01T06:35:16;23;90
66160;DHT22;52960;50.810;20.620;2022-08-01T06:42:19;23;90
66160;DHT22;52960;50.810;20.620;2022-08-01T06:49:21;23;90
66160;DHT22;52960;50.810;20.620;2022-08-01T06:56:08;23;90
66160;DHT22;52960;50.810;20.620;2022-08-01T07:00:25;23;90
66160;DHT22;52960;50.810;20.620;2022-08-01T07:14:02;22;91
66160;DHT22;52960;50.810;20.620;2022-08-01T07:21:03;22;91
66160;DHT22;52960;50.810;20.620;2022-08-01T07:28:15;22;91
66160;DHT22;52960;50.810;20.620;2022-08-01T07:42:15;22;92
66160;DHT22;52960;50.810;20.620;2022-08-01T07:49:18;22;92
66160;DHT22;52960;50.810;20.620;2022-08-01T07:56:21;22;92
66160;DHT22;52960;50.810;20.620;2022-08-01T08:00:03;22;92
66160;DHT22;52960;50.810;20.620;2022-08-01T08:14:02;22;91
66160;DHT22;52960;50.810;20.620;2022-08-01T08:21:14;22;91
66160;DHT22;52960;50.810;20.620;2022-08-01T08:28:02;22;91
66160;DHT22;52960;50.810;20.620;2022-08-01T08:35:22;22;91
66160;DHT22;52960;50.810;20.620;2022-08-01T08:42:23;22;91
66160;DHT22;52960;50.810;20.620;2022-08-01T08:49:29;22;91
66160;DHT22;52960;50.810;20.620;2022-08-01T08:56:19;22;91
66160;DHT22;52960;50.810;20.620;2022-08-01T09:00:02;22;91
66160;DHT22;52960;50.810;20.620;2022-08-01T09:14:08;22;91
66160;DHT22;52960;50.810;20.620;2022-08-01T09:21:38;22;91
66160;DHT22;52960;50.810;20.620;2022-08-01T09:28:30;22;91
66160;DHT22;52960;50.810;20.620;2022-08-01T09:35:33;22;91
66160;DHT22;52960;50.810;20.620;2022-08-01T09:42:27;22;92
66160;DHT22;52960;50.810;20.620;2022-08-01T09:49:05;22;92
66160;DHT22;52960;50.810;20.620;2022-08-01T09:56:16;22;92
66160;DHT22;52960;50.810;20.620;2022-08-01T10:00:31;22;92
66160;DHT22;52960;50.810;20.620;2022-08-01T10:14:07;22;92
66160;DHT22;52960;50.810;20.620;2022-08-01T10:21:23;22;92
66160;DHT22;52960;50.810;20.620;2022-08-01T10:28:10;22;92
66160;DHT22;52960;50.810;20.620;2022-08-01T10:35:03;22;92
66160;DHT22;52960;50.810;20.620;2022-08-01T10:42:09;22;93
66160;DHT22;52960;50.810;20.620;2022-08-01T10:49:47;22;93
66160;DHT22;52960;50.810;20.620;2022-08-01T10:56:10;22;93
66160;DHT22;52960;50.810;20.620;2022-08-01T11:00:22;22;93
66160;DHT22;52960;50.810;20.620;2022-08-01T11:14:12;21;94
66160;DHT22;52960;50.810;20.620;2022-08-01T11:21:05;21;94
66160;DHT22;52960;50.810;20.620;2022-08-01T11:28:37;21;94
66160;DHT22;52960;50.810;20.620;2022-08-01T11:35:24;21;94
66160;DHT22;52960;50.810;20.620;2022-08-01T11:42:23;21;94
66160;DHT22;52960;50.810;20.620;2022-08-01T11:49:45;21;94
66160;DHT22;52960;50.810;20.620;2022-08-01T11:56:05;21;94
66160;DHT22;52960;50.810;20.620;2022-08-01T12:00:24;21;94
66160;DHT22;52960;50.810;20.620;2022-08-01T12:07:27;21;94
66160;DHT22;52960;50.810;20.620;2022-08-01T12:14:03;22;93
66160;DHT22;52960;50.810;20.620;2022-08-01T12:21:20;22;93
66160;DHT22;52960;50.810;20.620;2022-08-01T12:28:07;22;93
66160;DHT22;52960;50.810;20.620;2022-08-01T12:35:37;22;93
66160;DHT22;52960;50.810;20.620;2022-08-01T12:42:16;23;92
66160;DHT22;52960;50.810;20.620;2022-08-01T12:49:04;23;92
66160;DHT22;52960;50.810;20.620;2022-08-01T12:56:32;23;92
66160;DHT22;52960;50.810;20.620;2022-08-01T13:00:23;23;92
66160;DHT22;52960;50.810;20.620;2022-08-01T13:07:05;23;92
66160;DHT22;52960;50.810;20.620;2022-08-01T13:14:31;24;89
66160;DHT22;52960;50.810;20.620;2022-08-01T13:21:17;24;89
66160;DHT22;52960;50.810;20.620;2022-08-01T13:28:34;24;89
66160;DHT22;52960;50.810;20.620;2022-08-01T13:35:08;24;89
66160;DHT22;52960;50.810;20.620;2022-08-01T13:49:16;24;90
66160;DHT22;52960;50.810;20.620;2022-08-01T13:56:15;24;90
66160;DHT22;52960;50.810;20.620;2022-08-01T14:00:20;24;90
66160;DHT22;52960;50.810;20.620;2022-08-01T14:07:17;24;90
66160;DHT22;52960;50.810;20.620;2022-08-01T14:21:04;24;89
66160;DHT22;52960;50.810;20.620;2022-08-01T14:28:18;24;89
66160;DHT22;52960;50.810;20.620;2022-08-01T14:35:15;24;89
66160;DHT22;52960;50.810;20.620;2022-08-01T14:49:04;24;88
66160;DHT22;52960;50.810;20.620;2022-08-01T14:56:18;24;88
66160;DHT22;52960;50.810;20.620;2022-08-01T15:00:18;24;88
66160;DHT22;52960;50.810;20.620;2022-08-01T15:07:05;24;88
66160;DHT22;52960;50.810;20.620;2022-08-01T15:21:16;24;88
66160;DHT22;52960;50.810;20.620;2022-08-01T15:28:14;24;88
66160;DHT22;52960;50.810;20.620;2022-08-01T15:35:13;24;88
66160;DHT22;52960;50.810;20.620;2022-08-01T15:49:03;24;90
66160;DHT22;52960;50.810;20.620;2022-08-01T15:56:03;24;90
66160;DHT22;52960;50.810;20.620;2022-08-01T16:00:19;24;90
66160;DHT22;52960;50.810;20.620;2022-08-01T16:07:02;24;90
66160;DHT22;52960;50.810;20.620;2022-08-01T16:21:12;24;92
66160;DHT22;52960;50.810;20.620;2022-08-01T16:28:04;24;92
66160;DHT22;52960;50.810;20.620;2022-08-01T16:35:04;24;92
66160;DHT22;52960;50.810;20.620;2022-08-01T16:49:18;24;91
66160;DHT22;52960;50.810;20.620;2022-08-01T16:56:18;24;91
66160;DHT22;52960;50.810;20.620;2022-08-01T17:00:04;24;91
66160;DHT22;52960;50.810;20.620;2022-08-01T17:07:05;24;91
66160;DHT22;52960;50.810;20.620;2022-08-01T17:21:05;25;91
66160;DHT22;52960;50.810;20.620;2022-08-01T17:28:03;25;91
66160;DHT22;52960;50.810;20.620;2022-08-01T17:35:19;25;91
66160;DHT22;52960;50.810;20.620;2022-08-01T17:49:05;25;88
66160;DHT22;52960;50.810;20.620;2022-08-01T17:56:05;25;88
66160;DHT22;52960;50.810;20.620;2022-08-01T18:00:03;25;88
66160;DHT22;52960;50.810;20.620;2022-08-01T18:07:17;25;88
66160;DHT22;52960;50.810;20.620;2022-08-01T18:21:04;22;72
66160;DHT22;52960;50.810;20.620;2022-08-01T18:28:17;22;72
66160;DHT22;52960;50.810;20.620;2022-08-01T18:35:18;22;72
66160;DHT22;52960;50.810;20.620;2022-08-01T18:42:02;22;72
66160;DHT22;52960;50.810;20.620;2022-08-01T18:49:18;22;70
66160;DHT22;52960;50.810;20.620;2022-08-01T18:56:15;22;70
66160;DHT22;52960;50.810;20.620;2022-08-01T19:00:20;22;70
66160;DHT22;52960;50.810;20.620;2022-08-01T19:07:02;22;70
66160;DHT22;52960;50.810;20.620;2022-08-01T19:21:02;25;83
66160;DHT22;52960;50.810;20.620;2022-08-01T19:28:03;25;83
66160;DHT22;52960;50.810;20.620;2022-08-01T19:35:19;25;83
66160;DHT22;52960;50.810;20.620;2022-08-01T19:42:03;25;83
66160;DHT22;52960;50.810;20.620;2022-08-01T19:49:19;24;89
66160;DHT22;52960;50.810;20.620;2022-08-01T19:56:06;24;89
66160;DHT22;52960;50.810;20.620;2022-08-01T20:00:12;24;89
66160;DHT22;52960;50.810;20.620;2022-08-01T20:07:17;24;89
66160;DHT22;52960;50.810;20.620;2022-08-01T20:21:12;24;89
66160;DHT22;52960;50.810;20.620;2022-08-01T20:28:29;24;89
66160;DHT22;52960;50.810;20.620;2022-08-01T20:35:09;24;89
66160;DHT22;52960;50.810;20.620;2022-08-01T20:42:13;24;89
66160;DHT22;52960;50.810;20.620;2022-08-01T20:49:37;24;91
66160;DHT22;52960;50.810;20.620;2022-08-01T20:56:59;24;91
66160;DHT22;52960;50.810;20.620;2022-08-01T21:00:09;24;91
66160;DHT22;52960;50.810;20.620;2022-08-01T21:07:17;24;91
66160;DHT22;52960;50.810;20.620;2022-08-01T21:21:28;24;88
66160;DHT22;52960;50.810;20.620;2022-08-01T21:28:06;24;88
66160;DHT22;52960;50.810;20.620;2022-08-01T21:35:04;24;88
66160;DHT22;52960;50.810;20.620;2022-08-01T21:42:02;24;88
66160;DHT22;52960;50.810;20.620;2022-08-01T21:49:06;25;88
66160;DHT22;52960;50.810;20.620;2022-08-01T21:56:05;25;88
66160;DHT22;52960;50.810;20.620;2022-08-01T22:00:36;25;88
66160;DHT22;52960;50.810;20.620;2022-08-01T22:07:12;25;88
66160;DHT22;52960;50.810;20.620;2022-08-01T22:14:17;24.44;88
66160;DHT22;52960;50.810;20.620;2022-08-01T22:21:02;24.44;88
66160;DHT22;52960;50.810;20.620;2022-08-01T22:28:23;24.44;88
66160;DHT22;52960;50.810;20.620;2022-08-01T22:35:18;24;88
66160;DHT22;52960;50.810;20.620;2022-08-01T22:42:08;24;88
66160;DHT22;52960;50.810;20.620;2022-08-01T22:49:33;24;88
66160;DHT22;52960;50.810;20.620;2022-08-01T22:56:10;24;88
66160;DHT22;52960;50.810;20.620;2022-08-01T23:07:38;24;88
66160;DHT22;52960;50.810;20.620;2022-08-01T23:14:25;24;88
66160;DHT22;52960;50.810;20.620;2022-08-01T23:21:25;24;88
66160;DHT22;52960;50.810;20.620;2022-08-01T23:28:07;24;88
66160;DHT22;52960;50.810;20.620;2022-08-01T23:35:07;24;86
66160;DHT22;52960;50.810;20.620;2022-08-01T23:42:02;24;86
66160;DHT22;52960;50.810;20.620;2022-08-01T23:49:03;24;86
66160;DHT22;52960;50.810;20.620;2022-08-01T23:56:03;24;86
